createdAt,value
2022-09-28T00:00:00.405Z,1.40
2022-09-28T00:02:28.715Z,1.40
2022-09-28T00:04:56.861Z,1.48
2022-09-28T00:07:24.942Z,1.35
2022-09-28T00:09:54.384Z,1.58
2022-09-28T00:12:22.679Z,1.73
2022-09-28T00:14:51.318Z,2.60
2022-09-28T00:17:22.230Z,1.75
2022-09-28T00:19:50.369Z,1.13
2022-09-28T00:22:18.408Z,1.90
2022-09-28T00:24:46.755Z,1.27
2022-09-28T00:27:16.162Z,1.15
2022-09-28T00:29:44.280Z,1.05
2022-09-28T00:32:13.465Z,2.47
2022-09-28T00:34:46.035Z,4.18
2022-09-28T00:37:14.615Z,1.10
2022-09-28T00:39:43.533Z,3.03
2022-09-28T00:42:13.637Z,3.13
2022-09-28T00:44:45.589Z,1.38
2022-09-28T00:47:33.022Z,1.48
2022-09-28T00:50:02.562Z,0.95
2022-09-28T00:52:32.653Z,2.13
2022-09-28T00:55:01.259Z,2.30
2022-09-28T00:57:29.408Z,1.50
2022-09-28T00:59:59.362Z,1.38
2022-09-28T01:02:27.428Z,1.45
2022-09-28T01:04:58.017Z,1.67
2022-09-28T01:07:26.526Z,2.83
2022-09-28T01:09:56.376Z,3.30
2022-09-28T01:12:24.397Z,3.08
2022-09-28T01:14:52.452Z,4.78
2022-09-28T01:17:24.641Z,2.53
2022-09-28T01:20:22.732Z,2.88
2022-09-28T01:23:23.174Z,1.38
2022-09-28T01:25:54.329Z,3.92
2022-09-28T01:28:25.006Z,2.35
2022-09-28T01:30:58.214Z,3.33
2022-09-28T01:33:28.073Z,6.63
2022-09-28T01:35:58.318Z,3.72
2022-09-28T01:38:27.990Z,5.47
2022-09-28T01:40:56.057Z,8.00
2022-09-28T01:43:26.519Z,2.42
2022-09-28T01:45:55.767Z,2.95
2022-09-28T01:48:25.452Z,1.92
2022-09-28T01:50:56.215Z,3.53
2022-09-28T01:53:26.200Z,2.45
2022-09-28T01:55:56.015Z,2.42
2022-09-28T01:58:27.313Z,5.47
2022-09-28T02:00:58.724Z,2.25
2022-09-28T02:03:29.174Z,2.65
2022-09-28T02:05:59.149Z,4.75
2022-09-28T02:08:29.659Z,3.50
2022-09-28T02:11:01.626Z,2.22
2022-09-28T02:13:32.513Z,4.07
2022-09-28T02:16:02.943Z,3.45
2022-09-28T02:18:31.008Z,3.00
2022-09-28T02:21:01.832Z,5.07
2022-09-28T02:23:30.227Z,3.38
2022-09-28T02:26:02.282Z,1.75
2022-09-28T02:28:31.692Z,2.88
2022-09-28T02:30:59.738Z,3.75
2022-09-28T02:33:31.171Z,1.98
2022-09-28T02:35:59.440Z,4.40
2022-09-28T02:38:27.674Z,4.53
2022-09-28T02:40:59.063Z,3.08
2022-09-28T02:43:31.142Z,2.85
2022-09-28T02:46:06.567Z,4.78
2022-09-28T02:48:55.860Z,3.47
2022-09-28T02:51:31.905Z,3.75
2022-09-28T02:54:18.938Z,2.10
2022-09-28T02:57:00.449Z,3.03
2022-09-28T02:59:36.487Z,3.67
2022-09-28T03:04:38.496Z,4.00
2022-09-28T03:07:08.455Z,5.13
2022-09-28T03:09:38.969Z,2.80
2022-09-28T03:12:08.969Z,3.88
2022-09-28T03:14:37.116Z,5.25
2022-09-28T03:17:06.505Z,6.43
2022-09-28T03:19:36.811Z,4.00
2022-09-28T03:22:05.706Z,5.85
2022-09-28T03:24:33.801Z,3.30
2022-09-28T03:27:01.865Z,4.03
2022-09-28T03:29:31.481Z,4.32
2022-09-28T03:31:59.581Z,8.27
2022-09-28T03:34:29.375Z,6.57
2022-09-28T03:36:57.397Z,5.18
2022-09-28T03:39:25.801Z,6.53
2022-09-28T03:41:53.834Z,9.52
2022-09-28T03:44:22.179Z,9.93
2022-09-28T03:46:50.528Z,8.60
2022-09-28T03:49:18.674Z,7.88
2022-09-28T03:51:48.129Z,5.22
2022-09-28T03:54:16.196Z,4.10
2022-09-28T03:56:44.247Z,5.30
2022-09-28T03:59:12.295Z,5.22
2022-09-28T04:01:40.464Z,7.00
2022-09-28T04:04:08.593Z,5.90
2022-09-28T04:06:36.613Z,4.63
2022-09-28T04:09:06.056Z,3.38
2022-09-28T04:11:42.986Z,4.40
2022-09-28T04:14:21.245Z,4.43
2022-09-28T04:16:49.328Z,7.43
2022-09-28T04:19:17.499Z,3.83
2022-09-28T04:21:45.634Z,2.83
2022-09-28T04:24:15.368Z,4.63
2022-09-28T04:26:43.451Z,5.88
2022-09-28T04:29:16.848Z,4.75
2022-09-28T04:31:46.662Z,5.68
2022-09-28T04:34:15.046Z,5.63
2022-09-28T04:36:43.090Z,4.60
2022-09-28T04:39:11.500Z,2.45
2022-09-28T04:41:40.897Z,3.17
2022-09-28T04:44:09.146Z,4.18
2022-09-28T04:46:37.166Z,4.78
2022-09-28T04:49:05.234Z,3.67
2022-09-28T04:51:33.309Z,5.28
2022-09-28T04:54:01.365Z,4.40
2022-09-28T04:56:29.437Z,6.13
2022-09-28T04:58:58.948Z,4.38
2022-09-28T05:01:27.069Z,3.38
2022-09-28T05:03:55.700Z,2.92
2022-09-28T05:06:28.000Z,6.20
2022-09-28T05:08:57.412Z,5.65
2022-09-28T05:11:25.428Z,5.45
2022-09-28T05:13:53.469Z,9.15
2022-09-28T05:16:22.926Z,6.63
2022-09-28T05:18:51.030Z,4.65
2022-09-28T05:21:20.143Z,11.45
2022-09-28T05:23:48.328Z,10.90
2022-09-28T05:26:16.385Z,19.77
2022-09-28T05:28:44.736Z,51.50
2022-09-28T05:31:12.828Z,57.33
2022-09-28T05:33:42.266Z,27.80
2022-09-28T05:36:10.383Z,19.48
2022-09-28T05:38:38.510Z,7.97
2022-09-28T05:41:07.039Z,9.10
2022-09-28T05:43:35.187Z,5.45
2022-09-28T05:46:03.351Z,7.28
2022-09-28T05:48:31.540Z,8.13
2022-09-28T05:51:00.957Z,13.52
2022-09-28T05:53:29.045Z,8.25
2022-09-28T05:55:59.345Z,9.02
2022-09-28T05:58:27.379Z,6.25
2022-09-28T06:00:55.832Z,7.68
2022-09-28T06:03:23.969Z,7.00
2022-09-28T06:05:52.034Z,7.63
2022-09-28T06:08:21.434Z,9.55
2022-09-28T06:10:49.692Z,4.68
2022-09-28T06:13:17.811Z,4.70
2022-09-28T06:15:47.854Z,6.05
2022-09-28T06:18:15.977Z,4.95
2022-09-28T06:20:44.702Z,4.97
2022-09-28T06:23:13.251Z,10.77
2022-09-28T06:25:42.781Z,5.75
2022-09-28T06:28:11.724Z,7.13
2022-09-28T06:30:39.959Z,6.15
2022-09-28T06:33:09.277Z,6.68
2022-09-28T06:35:37.780Z,6.75
2022-09-28T06:38:05.809Z,4.57
2022-09-28T06:40:34.283Z,8.65
2022-09-28T06:43:06.698Z,6.45
2022-09-28T06:45:34.762Z,9.35
2022-09-28T06:48:03.230Z,8.63
2022-09-28T06:50:32.346Z,5.43
2022-09-28T06:53:00.729Z,7.65
2022-09-28T06:55:29.143Z,6.05
2022-09-28T06:58:00.283Z,10.73
2022-09-28T07:00:31.280Z,6.45
2022-09-28T07:02:59.376Z,7.63
2022-09-28T07:05:28.981Z,7.60
2022-09-28T07:07:57.195Z,7.80
2022-09-28T07:10:25.595Z,5.80
2022-09-28T07:12:53.743Z,7.75
2022-09-28T07:15:22.019Z,8.82
2022-09-28T07:18:01.166Z,8.88
2022-09-28T07:20:31.370Z,12.27
2022-09-28T07:23:11.511Z,8.20
2022-09-28T07:25:47.799Z,16.88
2022-09-28T07:28:16.017Z,13.45
2022-09-28T07:30:44.742Z,10.20
2022-09-28T07:33:16.004Z,13.10
2022-09-28T07:35:50.928Z,6.45
2022-09-28T07:38:19.674Z,5.88
2022-09-28T07:41:27.327Z,4.93
2022-09-28T07:44:11.426Z,5.93
2022-09-28T07:46:39.606Z,6.80
2022-09-28T07:49:29.665Z,7.80
2022-09-28T07:52:21.502Z,8.65
2022-09-28T07:55:17.645Z,13.70
2022-09-28T07:57:52.261Z,6.15
2022-09-28T08:00:48.546Z,6.43
2022-09-28T08:03:19.769Z,5.38
2022-09-28T08:05:49.882Z,5.38
2022-09-28T08:08:18.605Z,12.10
2022-09-28T08:10:47.570Z,4.57
2022-09-28T08:13:16.449Z,5.38
2022-09-28T08:15:45.139Z,3.08
2022-09-28T08:18:13.171Z,6.47
2022-09-28T08:20:58.775Z,9.05
2022-09-28T08:23:28.253Z,6.57
2022-09-28T08:25:56.358Z,6.28
2022-09-28T08:28:24.706Z,6.53
2022-09-28T08:30:52.813Z,5.72
2022-09-28T08:33:21.499Z,4.07
2022-09-28T08:35:49.766Z,5.88
2022-09-28T08:38:18.437Z,6.57
2022-09-28T08:40:50.649Z,6.65
2022-09-28T08:43:33.241Z,6.35
2022-09-28T08:46:01.369Z,2.80
2022-09-28T08:49:06.625Z,3.83
2022-09-28T08:54:09.455Z,5.13
2022-09-28T08:56:46.002Z,6.03
2022-09-28T08:59:15.147Z,23.08
2022-09-28T09:01:45.746Z,10.60
2022-09-28T09:04:13.961Z,6.78
2022-09-28T09:06:51.577Z,6.65
2022-09-28T09:09:22.663Z,6.82
2022-09-28T09:11:58.903Z,3.85
2022-09-28T09:15:06.995Z,10.82
2022-09-28T09:17:40.914Z,8.68
2022-09-28T09:20:16.569Z,8.65
2022-09-28T09:22:51.297Z,9.55
2022-09-28T09:25:21.379Z,9.73
2022-09-28T09:27:59.247Z,5.60
2022-09-28T09:30:30.095Z,5.32
2022-09-28T09:33:28.992Z,6.15
2022-09-28T09:36:09.534Z,6.28
2022-09-28T09:38:43.165Z,5.03
2022-09-28T09:41:17.530Z,3.88
2022-09-28T09:44:11.846Z,4.07
2022-09-28T09:46:41.602Z,3.95
2022-09-28T09:49:12.343Z,5.22
2022-09-28T09:51:43.599Z,5.25
2022-09-28T09:54:16.193Z,3.70
2022-09-28T09:56:46.764Z,5.03
2022-09-28T09:59:18.991Z,6.53
2022-09-28T10:01:47.490Z,6.45
2022-09-28T10:04:19.268Z,7.75
2022-09-28T10:06:47.503Z,7.88
2022-09-28T10:09:18.033Z,5.50
2022-09-28T10:11:46.857Z,10.85
2022-09-28T10:14:17.533Z,6.43
2022-09-28T10:16:45.798Z,4.63
2022-09-28T10:19:14.031Z,3.58
2022-09-28T10:21:42.271Z,5.28
2022-09-28T10:24:13.261Z,4.22
2022-09-28T10:26:41.903Z,5.53
2022-09-28T10:29:14.737Z,6.25
2022-09-28T10:31:45.360Z,10.07
2022-09-28T10:34:15.251Z,2.97
2022-09-28T10:36:48.791Z,7.57
2022-09-28T10:39:30.162Z,4.80
2022-09-28T10:41:59.887Z,5.53
2022-09-28T10:44:28.468Z,4.15
2022-09-28T10:47:02.436Z,4.35
2022-09-28T10:49:31.111Z,5.97
2022-09-28T10:51:59.182Z,4.90
2022-09-28T10:54:28.341Z,6.55
2022-09-28T10:56:57.051Z,8.38
2022-09-28T10:59:37.492Z,5.18
2022-09-28T11:02:19.755Z,5.95
2022-09-28T11:04:52.142Z,5.78
2022-09-28T11:07:20.889Z,6.88
2022-09-28T11:09:49.688Z,9.15
2022-09-28T11:12:19.830Z,8.48
2022-09-28T11:14:52.687Z,7.55
2022-09-28T11:17:29.046Z,3.58
2022-09-28T11:19:57.501Z,5.50
2022-09-28T11:22:29.018Z,4.47
2022-09-28T11:25:15.289Z,8.90
2022-09-28T11:27:43.422Z,8.93
2022-09-28T11:30:23.793Z,6.68
2022-09-28T11:32:54.078Z,6.35
2022-09-28T11:35:23.572Z,5.65
2022-09-28T11:38:01.008Z,5.72
2022-09-28T11:40:33.376Z,4.40
2022-09-28T11:43:08.232Z,11.30
2022-09-28T11:45:46.793Z,8.20
2022-09-28T11:48:16.725Z,4.20
2022-09-28T11:50:47.908Z,12.70
2022-09-28T11:53:20.667Z,9.27
2022-09-28T11:55:50.597Z,13.60
2022-09-28T11:58:23.150Z,13.75
2022-09-28T12:00:51.984Z,23.45
2022-09-28T12:03:22.956Z,11.38
2022-09-28T12:05:52.754Z,12.13
2022-09-28T12:08:25.322Z,8.43
2022-09-28T12:10:57.158Z,7.60
2022-09-28T12:13:27.501Z,5.63
2022-09-28T12:16:38.450Z,6.80
2022-09-28T12:18:50.380Z,8.98
2022-09-28T12:21:37.812Z,10.57
2022-09-28T12:24:11.628Z,9.27
2022-09-28T12:26:43.239Z,22.85
2022-09-28T12:29:13.260Z,7.10
2022-09-28T12:31:48.334Z,4.93
2022-09-28T12:34:18.061Z,6.33
2022-09-28T12:36:50.746Z,6.70
2022-09-28T12:39:56.369Z,3.83
2022-09-28T12:42:32.745Z,6.60
2022-09-28T12:45:08.964Z,6.45
2022-09-28T12:48:12.621Z,5.25
2022-09-28T12:50:54.516Z,4.45
2022-09-28T12:53:34.317Z,8.93
2022-09-28T12:56:03.586Z,6.78
2022-09-28T12:58:56.043Z,7.25
2022-09-28T13:01:32.721Z,5.38
2022-09-28T13:04:10.349Z,6.93
2022-09-28T13:06:49.238Z,8.52
2022-09-28T13:11:56.057Z,4.70
2022-09-28T13:14:37.019Z,8.25
2022-09-28T13:17:06.672Z,8.48
2022-09-28T13:19:37.580Z,17.33
2022-09-28T13:22:13.328Z,10.85
2022-09-28T13:24:44.525Z,29.85
2022-09-28T13:27:16.002Z,11.60
2022-09-28T13:29:44.187Z,11.25
2022-09-28T13:32:12.910Z,3.63
2022-09-28T13:34:41.033Z,4.30
2022-09-28T13:37:21.912Z,14.52
2022-09-28T13:39:56.575Z,11.57
2022-09-28T13:42:51.782Z,6.88
2022-09-28T13:45:51.776Z,6.28
2022-09-28T13:48:21.085Z,6.40
2022-09-28T13:51:06.149Z,4.85
2022-09-28T13:53:42.433Z,5.75
2022-09-28T13:56:20.924Z,7.07
2022-09-28T13:58:49.871Z,10.65
2022-09-28T14:01:19.047Z,6.43
2022-09-28T14:03:55.473Z,6.35
2022-09-28T14:06:25.510Z,6.75
2022-09-28T14:09:30.113Z,6.05
2022-09-28T14:12:01.147Z,7.40
2022-09-28T14:14:48.902Z,5.80
2022-09-28T14:17:53.228Z,8.75
2022-09-28T14:20:26.339Z,4.93
2022-09-28T14:23:21.846Z,6.32
2022-09-28T14:26:04.732Z,5.25
2022-09-28T14:28:40.634Z,3.45
2022-09-28T14:33:39.288Z,5.35
2022-09-28T14:36:08.094Z,6.93
2022-09-28T14:38:54.814Z,5.07
2022-09-28T14:41:33.851Z,7.68
2022-09-28T14:44:04.222Z,9.20
2022-09-28T14:46:36.982Z,10.60
2022-09-28T14:49:06.510Z,7.65
2022-09-28T14:52:11.091Z,4.97
2022-09-28T14:54:49.255Z,6.68
2022-09-28T14:57:20.568Z,9.95
2022-09-28T14:59:48.636Z,7.50
2022-09-28T15:02:23.385Z,5.80
2022-09-28T15:04:53.353Z,4.75
2022-09-28T15:07:23.091Z,3.40
2022-09-28T15:09:51.957Z,4.18
2022-09-28T15:12:22.580Z,4.47
2022-09-28T15:14:52.706Z,5.60
2022-09-28T15:17:22.429Z,23.95
2022-09-28T15:20:08.903Z,5.47
2022-09-28T15:22:37.145Z,5.22
2022-09-28T15:25:14.142Z,9.23
2022-09-28T15:27:43.675Z,8.13
2022-09-28T15:30:24.596Z,10.65
2022-09-28T15:32:54.692Z,6.35
2022-09-28T15:35:23.786Z,8.63
2022-09-28T15:37:52.834Z,6.97
2022-09-28T15:40:25.619Z,4.47
2022-09-28T15:42:59.981Z,5.65
2022-09-28T15:45:33.620Z,4.22
2022-09-28T15:48:19.282Z,6.30
2022-09-28T15:51:12.187Z,8.93
2022-09-28T15:53:44.465Z,9.75
2022-09-28T15:56:12.582Z,5.40
2022-09-28T15:58:42.234Z,5.88
2022-09-28T16:01:32.145Z,6.00
2022-09-28T16:04:02.005Z,6.32
2022-09-28T16:06:30.178Z,6.53
2022-09-28T16:08:59.596Z,4.57
2022-09-28T16:11:28.445Z,10.27
2022-09-28T16:14:01.856Z,6.47
2022-09-28T16:16:32.236Z,6.22
2022-09-28T16:19:01.774Z,4.38
2022-09-28T16:21:42.012Z,6.70
2022-09-28T16:24:22.002Z,5.45
2022-09-28T16:26:51.891Z,7.10
2022-09-28T16:29:40.132Z,6.22
2022-09-28T16:32:33.469Z,9.95
2022-09-28T16:35:15.861Z,4.15
2022-09-28T16:37:43.897Z,9.68
2022-09-28T16:40:11.985Z,16.10
2022-09-28T16:42:40.120Z,7.10
2022-09-28T16:45:12.691Z,9.10
2022-09-28T16:47:40.723Z,5.18
2022-09-28T16:50:11.330Z,9.13
2022-09-28T16:52:59.820Z,9.88
2022-09-28T16:55:39.999Z,6.97
2022-09-28T16:58:09.108Z,7.40
2022-09-28T17:00:38.634Z,9.30
2022-09-28T17:03:15.483Z,9.30
2022-09-28T17:05:43.700Z,5.63
2022-09-28T17:08:13.611Z,8.63
2022-09-28T17:11:09.387Z,5.43
2022-09-28T17:13:33.347Z,3.45
2022-09-28T17:16:04.436Z,3.88
2022-09-28T17:18:32.970Z,5.10
2022-09-28T17:21:03.297Z,6.68
2022-09-28T17:23:31.598Z,8.48
2022-09-28T17:26:00.340Z,12.68
2022-09-28T17:28:29.438Z,5.65
2022-09-28T17:30:57.557Z,8.80
2022-09-28T17:33:27.330Z,12.52
2022-09-28T17:35:59.095Z,9.38
2022-09-28T17:38:27.438Z,11.45
2022-09-28T17:40:55.655Z,11.63
2022-09-28T17:43:23.831Z,7.00
2022-09-28T17:45:52.557Z,16.15
2022-09-28T17:48:24.338Z,5.45
2022-09-28T17:50:53.785Z,13.90
2022-09-28T17:53:21.852Z,9.50
2022-09-28T17:55:50.229Z,5.55
2022-09-28T17:58:19.344Z,5.97
2022-09-28T18:00:47.765Z,3.88
2022-09-28T18:03:18.249Z,6.93
2022-09-28T18:05:46.725Z,4.40
2022-09-28T18:08:18.867Z,4.00
2022-09-28T18:10:47.418Z,9.80
2022-09-28T18:13:15.520Z,11.57
2022-09-28T18:15:43.749Z,5.70
2022-09-28T18:18:12.979Z,10.45
2022-09-28T18:20:42.029Z,9.23
2022-09-28T18:23:10.105Z,6.85
2022-09-28T18:25:41.887Z,6.68
2022-09-28T18:28:09.961Z,4.75
2022-09-28T18:30:39.966Z,6.03
2022-09-28T18:33:08.080Z,5.60
2022-09-28T18:35:36.112Z,5.07
2022-09-28T18:38:05.231Z,5.40
2022-09-28T18:40:33.392Z,4.13
2022-09-28T18:43:02.856Z,10.38
2022-09-28T18:45:31.218Z,11.88
2022-09-28T18:47:59.687Z,10.23
2022-09-28T18:50:27.752Z,10.95
2022-09-28T18:53:11.366Z,19.00
2022-09-28T18:55:40.358Z,10.88
2022-09-28T18:58:10.526Z,7.43
2022-09-28T19:00:39.121Z,5.80
2022-09-28T19:03:07.438Z,8.00
2022-09-28T19:05:35.672Z,4.65
2022-09-28T19:08:04.096Z,5.50
2022-09-28T19:10:32.198Z,5.25
2022-09-28T19:13:00.598Z,11.15
2022-09-28T19:15:30.152Z,5.97
2022-09-28T19:17:58.282Z,7.13
2022-09-28T19:20:26.423Z,6.22
2022-09-28T19:22:54.495Z,5.93
2022-09-28T19:25:22.588Z,9.73
2022-09-28T19:27:50.630Z,4.20
2022-09-28T19:30:18.830Z,4.80
2022-09-28T19:32:48.266Z,23.05
2022-09-28T19:35:16.500Z,11.15
2022-09-28T19:37:46.721Z,11.23
2022-09-28T19:40:14.951Z,17.42
2022-09-28T19:42:43.018Z,8.43
2022-09-28T19:45:11.466Z,6.05
2022-09-28T19:47:39.572Z,5.97
2022-09-28T19:50:10.279Z,5.75
2022-09-28T19:52:38.350Z,8.90
2022-09-28T19:55:07.299Z,3.60
2022-09-28T19:57:35.370Z,4.28
2022-09-28T20:00:04.084Z,6.55
2022-09-28T20:02:32.338Z,5.00
2022-09-28T20:05:00.468Z,4.63
2022-09-28T20:07:32.979Z,6.30
2022-09-28T20:10:01.303Z,5.25
2022-09-28T20:12:29.375Z,5.85
2022-09-28T20:14:57.942Z,4.80
2022-09-28T20:17:26.059Z,6.68
2022-09-28T20:19:56.349Z,6.03
2022-09-28T20:22:24.517Z,4.60
2022-09-28T20:24:53.972Z,8.82
2022-09-28T20:27:26.217Z,9.65
2022-09-28T20:29:54.749Z,5.25
2022-09-28T20:32:22.809Z,4.30
2022-09-28T20:34:50.940Z,5.13
2022-09-28T20:37:19.396Z,6.47
2022-09-28T20:39:47.494Z,3.80
2022-09-28T20:42:16.929Z,7.90
2022-09-28T20:44:45.004Z,7.88
2022-09-28T20:47:13.080Z,11.63
2022-09-28T20:49:41.607Z,11.23
2022-09-28T20:52:09.657Z,7.60
2022-09-28T20:54:38.125Z,9.38
2022-09-28T20:57:17.353Z,21.73
2022-09-28T20:59:49.801Z,10.57
2022-09-28T21:02:21.861Z,9.98
2022-09-28T21:04:49.952Z,6.55
2022-09-28T21:07:18.030Z,6.20
2022-09-28T21:09:46.108Z,7.82
2022-09-28T21:12:15.410Z,6.03
2022-09-28T21:14:43.545Z,7.53
2022-09-28T21:17:13.007Z,8.20
2022-09-28T21:19:41.109Z,11.50
2022-09-28T21:22:09.184Z,12.77
2022-09-28T21:24:37.275Z,10.38
2022-09-28T21:27:05.444Z,8.57
2022-09-28T21:29:33.537Z,10.35
2022-09-28T21:32:01.744Z,8.02
2022-09-28T21:34:31.220Z,8.48
2022-09-28T21:36:59.251Z,8.20
2022-09-28T21:39:27.371Z,9.68
2022-09-28T21:41:55.429Z,4.20
2022-09-28T21:44:23.597Z,4.75
2022-09-28T21:46:51.655Z,10.10
2022-09-28T21:49:19.757Z,5.75
2022-09-28T21:51:49.191Z,9.70
2022-09-28T21:54:17.356Z,4.95
2022-09-28T21:56:45.417Z,7.13
2022-09-28T21:59:13.492Z,6.70
2022-09-28T22:01:42.892Z,6.32
2022-09-28T22:04:11.216Z,6.35
2022-09-28T22:06:39.805Z,7.05
2022-09-28T22:09:09.402Z,6.53
2022-09-28T22:11:37.465Z,5.00
2022-09-28T22:14:05.608Z,6.07
2022-09-28T22:16:33.647Z,6.50
2022-09-28T22:19:01.783Z,7.72
2022-09-28T22:21:30.477Z,5.88
2022-09-28T22:24:01.029Z,5.20
2022-09-28T22:26:31.868Z,7.35
2022-09-28T22:29:00.768Z,7.15
2022-09-28T22:31:29.540Z,6.28
2022-09-28T22:33:57.735Z,3.80
2022-09-28T22:36:26.033Z,3.88
2022-09-28T22:38:54.877Z,6.70
2022-09-28T22:41:23.062Z,5.78
2022-09-28T22:43:53.771Z,8.00
2022-09-28T22:46:23.023Z,4.65
2022-09-28T22:48:52.704Z,6.88
2022-09-28T22:51:21.111Z,4.35
2022-09-28T22:53:49.190Z,6.00
2022-09-28T22:56:18.905Z,4.45
2022-09-28T22:58:47.438Z,4.05
2022-09-28T23:01:18.573Z,4.10
2022-09-28T23:03:46.803Z,5.57
2022-09-28T23:06:16.600Z,4.93
2022-09-28T23:08:44.831Z,4.78
2022-09-28T23:11:12.922Z,7.75
2022-09-28T23:13:41.009Z,7.38
2022-09-28T23:16:09.950Z,4.75
2022-09-28T23:18:40.897Z,6.40
2022-09-28T23:21:11.096Z,5.65
2022-09-28T23:23:39.296Z,5.78
2022-09-28T23:26:12.056Z,3.92
2022-09-28T23:28:40.130Z,6.03
2022-09-28T23:31:12.073Z,9.25
2022-09-28T23:33:41.572Z,3.67
2022-09-28T23:36:09.957Z,3.38
2022-09-28T23:38:38.060Z,5.10
2022-09-28T23:41:06.197Z,4.85
2022-09-28T23:43:34.552Z,5.60
2022-09-28T23:46:02.759Z,5.15
2022-09-28T23:48:31.022Z,3.92
2022-09-28T23:51:00.443Z,5.28
2022-09-28T23:53:28.623Z,3.80
2022-09-28T23:55:56.754Z,4.65
2022-09-28T23:58:25.833Z,4.72
